createdAt,value
2023-11-28T06:03:29.808Z,5.85
2023-11-28T06:06:02.037Z,6.57
2023-11-28T06:08:29.927Z,5.82
2023-11-28T06:10:58.195Z,6.43
2023-11-28T06:13:26.300Z,6.57
2023-11-28T06:15:53.667Z,5.63
2023-11-28T06:18:21.673Z,6.32
2023-11-28T06:20:48.696Z,5.45
2023-11-28T06:23:18.726Z,5.88
2023-11-28T06:25:48.312Z,5.93
2023-11-28T06:28:15.050Z,5.85
2023-11-28T06:30:42.433Z,5.75
2023-11-28T06:33:09.651Z,5.05
2023-11-28T06:35:37.297Z,5.15
2023-11-28T06:38:04.889Z,5.78
2023-11-28T06:40:33.701Z,5.68
2023-11-28T06:43:01.370Z,4.07
2023-11-28T06:45:28.208Z,4.80
2023-11-28T06:47:55.898Z,4.03
2023-11-28T06:50:22.886Z,4.95
2023-11-28T06:52:50.306Z,4.00
2023-11-28T06:55:20.092Z,4.65
2023-11-28T06:57:49.473Z,3.40
2023-11-28T07:00:16.789Z,3.05
2023-11-28T07:02:44.611Z,3.90
2023-11-28T07:05:11.504Z,2.97
2023-11-28T07:07:40.058Z,2.90
2023-11-28T07:10:10.021Z,3.95
2023-11-28T07:12:36.901Z,2.63
2023-11-28T07:15:05.311Z,3.45
2023-11-28T07:17:33.717Z,2.88
2023-11-28T07:20:01.474Z,2.25
2023-11-28T07:22:28.511Z,2.67
2023-11-28T07:24:57.692Z,2.53
2023-11-28T07:27:26.326Z,3.15
2023-11-28T07:29:53.312Z,2.90
2023-11-28T07:32:20.575Z,2.15
2023-11-28T07:34:48.333Z,2.47
2023-11-28T07:37:15.061Z,2.63
2023-11-28T07:39:42.408Z,2.50
2023-11-28T07:42:09.488Z,2.88
2023-11-28T07:44:36.555Z,2.28
2023-11-28T07:47:04.174Z,2.08
2023-11-28T07:49:30.863Z,2.45
2023-11-28T07:51:58.252Z,2.17
2023-11-28T07:54:25.525Z,2.97
2023-11-28T07:56:52.352Z,2.60
2023-11-28T07:59:19.372Z,2.50
2023-11-28T08:01:47.462Z,2.80
2023-11-28T08:04:14.632Z,2.40
2023-11-28T08:06:42.356Z,2.75
2023-11-28T08:09:09.682Z,3.15
2023-11-28T08:11:36.949Z,2.70
2023-11-28T08:14:03.820Z,2.83
2023-11-28T08:16:31.318Z,2.42
2023-11-28T08:18:58.026Z,2.50
2023-11-28T08:21:26.649Z,3.03
2023-11-28T08:23:53.596Z,3.13
2023-11-28T08:26:20.663Z,3.03
2023-11-28T08:28:47.461Z,2.42
2023-11-28T08:31:15.449Z,3.05
2023-11-28T08:33:42.250Z,2.78
2023-11-28T08:36:09.688Z,2.90
2023-11-28T08:38:38.944Z,3.55
2023-11-28T08:41:07.035Z,3.20
2023-11-28T08:43:33.803Z,3.38
2023-11-28T08:46:01.111Z,3.65
2023-11-28T08:48:27.806Z,3.47
2023-11-28T08:50:54.634Z,3.50
2023-11-28T08:53:22.118Z,3.72
2023-11-28T08:55:49.919Z,4.03
2023-11-28T08:58:17.307Z,4.13
2023-11-28T09:00:44.008Z,3.45
2023-11-28T09:03:11.548Z,3.67
2023-11-28T09:05:38.387Z,3.50
2023-11-28T09:08:06.084Z,3.47
2023-11-28T09:10:32.798Z,3.80
2023-11-28T09:13:00.211Z,3.67
2023-11-28T09:15:26.947Z,3.38
2023-11-28T09:17:54.232Z,3.80
2023-11-28T09:20:21.360Z,3.17
2023-11-28T09:22:49.099Z,4.13
2023-11-28T09:25:16.555Z,3.83
2023-11-28T09:27:43.932Z,3.65
2023-11-28T09:30:11.123Z,3.70
2023-11-28T09:32:38.330Z,3.45
2023-11-28T09:35:07.144Z,4.03
2023-11-28T09:37:33.969Z,3.67
2023-11-28T09:40:01.539Z,3.45
2023-11-28T09:42:32.518Z,3.90
2023-11-28T09:45:05.654Z,4.05
2023-11-28T09:47:37.511Z,4.32
2023-11-28T09:50:14.088Z,3.70
2023-11-28T09:52:45.833Z,3.47
2023-11-28T09:55:17.018Z,4.10
2023-11-28T09:57:48.543Z,3.72
2023-11-28T10:00:19.869Z,3.72
2023-11-28T10:02:55.481Z,3.75
2023-11-28T10:05:23.117Z,3.70
2023-11-28T10:07:53.708Z,3.85
2023-11-28T10:10:25.311Z,4.00
2023-11-28T10:12:53.425Z,3.40
2023-11-28T10:15:22.816Z,3.10
2023-11-28T10:17:50.550Z,3.40
2023-11-28T10:20:19.227Z,3.17
2023-11-28T10:22:53.571Z,2.83
2023-11-28T10:25:25.630Z,3.13
2023-11-28T10:27:59.096Z,4.03
2023-11-28T10:30:26.522Z,2.50
2023-11-28T10:32:56.842Z,2.92
2023-11-28T10:35:24.116Z,3.30
2023-11-28T10:37:51.449Z,3.13
2023-11-28T10:40:19.353Z,3.00
2023-11-28T10:42:46.798Z,3.00
2023-11-28T10:45:17.496Z,3.33
2023-11-28T10:47:45.635Z,3.03
2023-11-28T10:50:14.981Z,3.15
2023-11-28T10:52:48.422Z,3.08
2023-11-28T10:55:23.235Z,3.10
2023-11-28T10:57:59.556Z,3.13
2023-11-28T11:00:26.850Z,3.25
2023-11-28T11:02:56.266Z,2.95
2023-11-28T11:05:24.729Z,3.60
2023-11-28T11:07:53.452Z,3.28
2023-11-28T11:10:20.168Z,3.33
2023-11-28T11:12:55.009Z,3.20
2023-11-28T11:15:28.133Z,3.70
2023-11-28T11:18:07.363Z,3.58
2023-11-28T11:20:37.510Z,3.95
2023-11-28T11:23:08.415Z,3.60
2023-11-28T11:25:42.057Z,3.55
2023-11-28T11:28:09.772Z,3.33
2023-11-28T11:30:40.733Z,2.53
2023-11-28T11:33:08.894Z,3.25
2023-11-28T11:36:08.782Z,2.80
2023-11-28T11:38:38.160Z,2.88
2023-11-28T11:41:06.427Z,4.57
2023-11-28T11:43:40.041Z,3.67
2023-11-28T11:46:09.379Z,3.30
2023-11-28T11:48:36.623Z,3.53
2023-11-28T11:51:03.579Z,4.00
2023-11-28T11:53:32.468Z,4.00
2023-11-28T11:56:03.180Z,3.60
2023-11-28T11:58:31.784Z,4.85
2023-11-28T12:01:02.826Z,5.07
2023-11-28T12:03:30.591Z,4.22
2023-11-28T12:06:01.393Z,4.20
2023-11-28T12:08:29.191Z,4.63
2023-11-28T12:11:11.212Z,4.03
2023-11-28T12:13:42.149Z,4.05
2023-11-28T12:16:10.650Z,4.05
2023-11-28T12:18:38.955Z,5.45
2023-11-28T12:21:06.525Z,5.72
2023-11-28T12:23:34.205Z,3.88
2023-11-28T12:26:03.667Z,4.28
2023-11-28T12:28:31.532Z,4.55
2023-11-28T12:30:58.518Z,4.15
2023-11-28T12:33:26.549Z,4.45
2023-11-28T12:35:56.239Z,4.82
2023-11-28T12:38:23.731Z,3.45
2023-11-28T12:40:57.346Z,3.50
2023-11-28T12:43:30.736Z,3.80
2023-11-28T12:45:59.056Z,3.63
2023-11-28T12:48:27.748Z,3.67
2023-11-28T12:50:54.774Z,4.88
2023-11-28T12:53:26.086Z,3.95
2023-11-28T12:55:53.388Z,3.28
2023-11-28T12:58:23.655Z,3.78
2023-11-28T13:00:51.202Z,3.38
2023-11-28T13:03:18.263Z,4.30
2023-11-28T13:05:45.812Z,3.50
2023-11-28T13:08:13.373Z,4.22
2023-11-28T13:10:40.761Z,8.90
2023-11-28T13:13:14.303Z,9.50
2023-11-28T13:15:44.975Z,6.72
2023-11-28T13:18:11.929Z,5.57
2023-11-28T13:20:39.427Z,5.88
2023-11-28T13:23:06.141Z,4.00
2023-11-28T13:25:33.484Z,3.40
2023-11-28T13:28:02.471Z,3.97
2023-11-28T13:30:30.062Z,3.40
2023-11-28T13:32:59.760Z,3.45
2023-11-28T13:35:28.163Z,3.67
2023-11-28T13:37:55.349Z,3.90
2023-11-28T13:40:22.820Z,3.40
2023-11-28T13:42:49.565Z,3.20
2023-11-28T13:45:17.057Z,2.90
2023-11-28T13:47:45.226Z,3.05
2023-11-28T13:50:12.805Z,3.45
2023-11-28T13:52:39.514Z,3.60
2023-11-28T13:55:07.178Z,3.58
2023-11-28T13:57:33.932Z,4.25
2023-11-28T14:00:01.281Z,4.97
2023-11-28T14:02:35.535Z,4.63
2023-11-28T14:05:12.066Z,3.60
2023-11-28T14:07:39.321Z,3.15
2023-11-28T14:10:10.781Z,3.45
2023-11-28T14:12:38.736Z,5.18
2023-11-28T14:15:06.982Z,6.68
2023-11-28T14:17:34.983Z,8.65
2023-11-28T14:20:04.795Z,13.25
2023-11-28T14:22:31.576Z,9.38
2023-11-28T14:24:58.891Z,8.55
2023-11-28T14:27:25.581Z,5.90
2023-11-28T14:29:53.042Z,4.50
2023-11-28T14:32:20.224Z,3.78
2023-11-28T14:34:47.335Z,3.83
2023-11-28T14:37:14.695Z,3.80
2023-11-28T14:39:46.339Z,3.67
2023-11-28T14:42:13.939Z,4.13
2023-11-28T14:44:40.585Z,9.25
2023-11-28T14:47:08.584Z,13.50
2023-11-28T14:49:35.330Z,21.15
2023-11-28T14:52:03.189Z,16.98
2023-11-28T14:54:29.835Z,36.47
2023-11-28T14:56:56.947Z,17.73
2023-11-28T14:59:24.256Z,10.68
2023-11-28T15:01:52.260Z,10.20
2023-11-28T15:04:19.128Z,11.07
2023-11-28T15:06:46.558Z,8.30
2023-11-28T15:09:16.203Z,4.88
2023-11-28T15:11:43.766Z,5.32
2023-11-28T15:14:10.674Z,4.85
2023-11-28T15:16:37.994Z,5.20
2023-11-28T15:19:04.794Z,4.60
2023-11-28T15:21:32.255Z,5.15
2023-11-28T15:23:59.119Z,5.13
2023-11-28T15:26:26.275Z,4.40
2023-11-28T15:28:53.777Z,4.82
2023-11-28T15:31:21.274Z,14.25
2023-11-28T15:33:48.466Z,11.20
2023-11-28T15:36:15.745Z,7.38
2023-11-28T15:38:42.925Z,7.30
2023-11-28T15:41:09.804Z,6.13
2023-11-28T15:43:36.750Z,5.72
2023-11-28T15:46:04.440Z,5.85
2023-11-28T15:48:31.187Z,6.90
2023-11-28T15:50:58.181Z,9.07
2023-11-28T15:53:25.517Z,5.07
2023-11-28T15:55:53.260Z,6.40
2023-11-28T15:58:20.627Z,7.22
2023-11-28T16:00:47.799Z,8.23
2023-11-28T16:03:14.900Z,7.93
2023-11-28T16:05:42.621Z,8.13
2023-11-28T16:08:10.359Z,7.65
2023-11-28T16:10:37.234Z,7.35
2023-11-28T16:13:04.605Z,7.43
2023-11-28T16:15:31.520Z,7.68
2023-11-28T16:17:59.043Z,7.50
2023-11-28T16:20:25.922Z,7.15
2023-11-28T16:22:53.257Z,9.85
2023-11-28T16:25:20.855Z,9.35
2023-11-28T16:27:47.943Z,8.93
2023-11-28T16:30:14.927Z,9.50
2023-11-28T16:32:42.514Z,9.88
2023-11-28T16:35:09.596Z,9.93
2023-11-28T16:37:40.509Z,9.15
2023-11-28T16:40:11.278Z,8.73
2023-11-28T16:42:38.996Z,8.48
2023-11-28T16:45:06.097Z,8.30
2023-11-28T16:47:33.979Z,8.13
2023-11-28T16:50:00.734Z,7.45
2023-11-28T16:52:28.175Z,7.22
2023-11-28T16:54:54.862Z,9.43
2023-11-28T16:57:23.717Z,11.98
2023-11-28T16:59:51.684Z,13.48
2023-11-28T17:02:19.160Z,16.75
2023-11-28T17:04:46.001Z,21.13
2023-11-28T17:07:13.976Z,27.65
2023-11-28T17:09:40.619Z,24.13
2023-11-28T17:12:08.159Z,30.95
2023-11-28T17:14:34.943Z,25.90
2023-11-28T17:17:02.220Z,31.60
2023-11-28T17:19:30.718Z,29.23
2023-11-28T17:21:57.788Z,27.73
2023-11-28T17:24:29.941Z,22.65
2023-11-28T17:26:57.416Z,17.05
2023-11-28T17:29:24.080Z,12.52
2023-11-28T17:31:54.912Z,12.50
2023-11-28T17:34:22.719Z,10.10
2023-11-28T17:36:49.415Z,9.52
2023-11-28T17:39:16.994Z,7.68
2023-11-28T17:41:43.755Z,7.55
2023-11-28T17:44:11.158Z,8.60
2023-11-28T17:46:37.867Z,8.45
2023-11-28T17:49:05.235Z,8.57
2023-11-28T17:51:31.943Z,8.23
2023-11-28T17:53:59.226Z,8.45
2023-11-28T17:56:26.004Z,8.68
2023-11-28T17:58:53.471Z,8.32
2023-11-28T18:01:20.851Z,9.32
2023-11-28T18:03:48.419Z,8.43
2023-11-28T18:06:15.145Z,7.88
2023-11-28T18:08:43.163Z,9.38
2023-11-28T18:11:11.253Z,10.80
2023-11-28T18:13:40.171Z,9.48
2023-11-28T18:16:06.968Z,8.10
2023-11-28T18:18:34.599Z,10.05
2023-11-28T18:21:11.430Z,8.85
2023-11-28T18:23:45.900Z,8.90
2023-11-28T18:26:13.489Z,10.57
2023-11-28T18:28:41.456Z,10.43
2023-11-28T18:31:08.288Z,10.85
2023-11-28T18:33:37.023Z,9.82
2023-11-28T18:36:11.744Z,10.55
2023-11-28T18:38:45.810Z,11.65
2023-11-28T18:41:18.118Z,11.02
2023-11-28T18:43:45.298Z,11.98
2023-11-28T18:46:14.047Z,11.82
2023-11-28T18:48:41.789Z,11.02
2023-11-28T18:51:21.190Z,11.48
2023-11-28T18:53:50.349Z,10.60
2023-11-28T18:56:24.679Z,10.13
2023-11-28T18:58:51.758Z,11.07
2023-11-28T19:01:20.200Z,12.40
2023-11-28T19:03:48.458Z,13.18
2023-11-28T19:06:16.397Z,12.38
2023-11-28T19:08:45.408Z,12.57
2023-11-28T19:11:12.378Z,11.50
2023-11-28T19:13:40.147Z,12.15
2023-11-28T19:16:08.189Z,10.77
2023-11-28T19:18:35.599Z,13.77
2023-11-28T19:21:04.197Z,13.43
2023-11-28T19:23:32.475Z,10.85
2023-11-28T19:25:59.221Z,13.90
2023-11-28T19:28:26.267Z,12.75
2023-11-28T19:30:53.603Z,11.43
2023-11-28T19:33:20.959Z,11.02
2023-11-28T19:35:47.761Z,9.85
2023-11-28T19:38:14.531Z,9.73
2023-11-28T19:40:42.838Z,10.00
2023-11-28T19:43:09.843Z,9.50
2023-11-28T19:45:37.797Z,11.45
2023-11-28T19:48:05.989Z,12.13
2023-11-28T19:50:33.573Z,14.00
2023-11-28T19:53:00.597Z,11.93
2023-11-28T19:55:28.027Z,13.80
2023-11-28T19:57:54.743Z,12.90
2023-11-28T20:00:23.948Z,12.70
2023-11-28T20:02:51.968Z,12.45
2023-11-28T20:05:20.846Z,13.07
2023-11-28T20:07:49.446Z,12.60
2023-11-28T20:12:51.938Z,12.85
2023-11-28T20:15:26.422Z,13.02
2023-11-28T20:17:57.247Z,12.27
2023-11-28T20:20:25.623Z,11.65
2023-11-28T20:22:54.337Z,12.75
2023-11-28T20:25:27.558Z,12.77
2023-11-28T20:28:03.253Z,13.10
2023-11-28T20:30:33.337Z,12.68
2023-11-28T20:33:01.437Z,13.48
2023-11-28T20:35:31.356Z,12.73
2023-11-28T20:37:58.654Z,14.10
2023-11-28T20:40:27.326Z,14.13
2023-11-28T20:42:54.281Z,14.25
2023-11-28T20:45:21.877Z,13.77
2023-11-28T20:47:48.856Z,14.18
2023-11-28T20:50:16.529Z,12.93
2023-11-28T20:52:43.349Z,13.75
2023-11-28T20:55:11.437Z,14.10
2023-11-28T20:57:38.287Z,15.13
2023-11-28T21:00:06.885Z,14.98
2023-11-28T21:02:33.811Z,14.00
2023-11-28T21:05:01.690Z,12.95
2023-11-28T21:07:28.818Z,12.77
2023-11-28T21:09:56.212Z,14.13
2023-11-28T21:12:23.031Z,12.27
2023-11-28T21:14:50.588Z,11.35
2023-11-28T21:17:17.439Z,12.15
2023-11-28T21:19:44.556Z,11.68
2023-11-28T21:22:11.951Z,11.98
2023-11-28T21:24:39.663Z,11.90
2023-11-28T21:27:07.473Z,10.48
2023-11-28T21:29:35.720Z,11.20
